sensor_id;sensor_type;location;lat;lon;timestamp;P1;durP1;ratioP1;P2;durP2;ratioP2
14133;SDS011;7147;59.364;18.018;2022-10-31T00:00:09;14.83;;;4.43;;
14133;SDS011;7147;59.364;18.018;2022-10-31T00:02:36;12.73;;;3.93;;
14133;SDS011;7147;59.364;18.018;2022-10-31T00:05:03;17.93;;;4.93;;
14133;SDS011;7147;59.364;18.018;2022-10-31T00:07:30;15.65;;;4.35;;
14133;SDS011;7147;59.364;18.018;2022-10-31T00:09:58;14.85;;;4.22;;
14133;SDS011;7147;59.364;18.018;2022-10-31T00:12:25;22.27;;;4.78;;
14133;SDS011;7147;59.364;18.018;2022-10-31T00:14:52;13.97;;;3.77;;
14133;SDS011;7147;59.364;18.018;2022-10-31T00:17:19;15.80;;;4.70;;
14133;SDS011;7147;59.364;18.018;2022-10-31T00:19:46;15.05;;;4.40;;
14133;SDS011;7147;59.364;18.018;2022-10-31T00:22:13;15.93;;;4.80;;
14133;SDS011;7147;59.364;18.018;2022-10-31T00:24:39;14.88;;;4.10;;
14133;SDS011;7147;59.364;18.018;2022-10-31T00:27:08;16.35;;;4.70;;
14133;SDS011;7147;59.364;18.018;2022-10-31T00:29:34;13.35;;;3.92;;
14133;SDS011;7147;59.364;18.018;2022-10-31T00:32:01;15.63;;;4.50;;
14133;SDS011;7147;59.364;18.018;2022-10-31T00:34:28;18.08;;;5.15;;
14133;SDS011;7147;59.364;18.018;2022-10-31T00:36:54;14.80;;;4.10;;
14133;SDS011;7147;59.364;18.018;2022-10-31T00:39:21;18.13;;;4.63;;
14133;SDS011;7147;59.364;18.018;2022-10-31T00:41:48;12.85;;;3.85;;
14133;SDS011;7147;59.364;18.018;2022-10-31T00:44:16;15.88;;;4.88;;
14133;SDS011;7147;59.364;18.018;2022-10-31T00:46:43;19.15;;;4.60;;
14133;SDS011;7147;59.364;18.018;2022-10-31T00:49:10;16.55;;;4.80;;
14133;SDS011;7147;59.364;18.018;2022-10-31T00:51:37;14.45;;;4.22;;
14133;SDS011;7147;59.364;18.018;2022-10-31T00:54:04;12.32;;;3.60;;
14133;SDS011;7147;59.364;18.018;2022-10-31T00:56:31;18.13;;;4.78;;
14133;SDS011;7147;59.364;18.018;2022-10-31T00:58:57;13.93;;;3.88;;
14133;SDS011;7147;59.364;18.018;2022-10-31T01:01:26;18.65;;;4.75;;
14133;SDS011;7147;59.364;18.018;2022-10-31T01:03:52;13.70;;;4.07;;
14133;SDS011;7147;59.364;18.018;2022-10-31T01:06:19;18.08;;;4.88;;
14133;SDS011;7147;59.364;18.018;2022-10-31T01:08:46;21.38;;;4.30;;
14133;SDS011;7147;59.364;18.018;2022-10-31T01:11:15;18.03;;;4.80;;
14133;SDS011;7147;59.364;18.018;2022-10-31T01:13:43;16.80;;;3.90;;
14133;SDS011;7147;59.364;18.018;2022-10-31T01:16:12;20.33;;;4.63;;
14133;SDS011;7147;59.364;18.018;2022-10-31T01:18:41;15.52;;;4.30;;
14133;SDS011;7147;59.364;18.018;2022-10-31T01:21:08;17.52;;;4.65;;
14133;SDS011;7147;59.364;18.018;2022-10-31T01:23:37;17.00;;;4.47;;
14133;SDS011;7147;59.364;18.018;2022-10-31T01:26:05;14.55;;;4.00;;
14133;SDS011;7147;59.364;18.018;2022-10-31T01:28:34;14.98;;;4.05;;
14133;SDS011;7147;59.364;18.018;2022-10-31T01:31:03;19.73;;;4.32;;
14133;SDS011;7147;59.364;18.018;2022-10-31T01:33:33;16.23;;;4.45;;
14133;SDS011;7147;59.364;18.018;2022-10-31T01:36:01;16.35;;;4.20;;
14133;SDS011;7147;59.364;18.018;2022-10-31T01:38:38;18.90;;;4.93;;
14133;SDS011;7147;59.364;18.018;2022-10-31T01:41:05;13.18;;;3.92;;
14133;SDS011;7147;59.364;18.018;2022-10-31T01:43:41;19.02;;;4.85;;
14133;SDS011;7147;59.364;18.018;2022-10-31T01:46:09;13.85;;;3.97;;
14133;SDS011;7147;59.364;18.018;2022-10-31T01:48:37;14.73;;;4.38;;
14133;SDS011;7147;59.364;18.018;2022-10-31T01:51:07;17.40;;;4.30;;
14133;SDS011;7147;59.364;18.018;2022-10-31T01:53:37;17.75;;;4.80;;
14133;SDS011;7147;59.364;18.018;2022-10-31T01:56:05;20.67;;;4.90;;
14133;SDS011;7147;59.364;18.018;2022-10-31T01:58:32;17.52;;;4.80;;
14133;SDS011;7147;59.364;18.018;2022-10-31T02:00:59;15.50;;;4.40;;
14133;SDS011;7147;59.364;18.018;2022-10-31T02:03:27;19.17;;;4.95;;
14133;SDS011;7147;59.364;18.018;2022-10-31T02:05:55;16.20;;;4.43;;
14133;SDS011;7147;59.364;18.018;2022-10-31T02:08:27;17.05;;;5.07;;
14133;SDS011;7147;59.364;18.018;2022-10-31T02:10:56;16.67;;;4.37;;
14133;SDS011;7147;59.364;18.018;2022-10-31T02:13:24;17.95;;;4.80;;
14133;SDS011;7147;59.364;18.018;2022-10-31T02:15:52;16.55;;;4.90;;
14133;SDS011;7147;59.364;18.018;2022-10-31T02:18:20;16.33;;;4.43;;
14133;SDS011;7147;59.364;18.018;2022-10-31T02:20:52;15.65;;;4.57;;
14133;SDS011;7147;59.364;18.018;2022-10-31T02:27:03;16.57;;;4.40;;
14133;SDS011;7147;59.364;18.018;2022-10-31T02:32:43;16.48;;;4.60;;
14133;SDS011;7147;59.364;18.018;2022-10-31T02:35:20;15.95;;;4.00;;
14133;SDS011;7147;59.364;18.018;2022-10-31T02:37:57;17.08;;;4.18;;
14133;SDS011;7147;59.364;18.018;2022-10-31T02:40:31;17.40;;;4.50;;
14133;SDS011;7147;59.364;18.018;2022-10-31T02:43:03;16.48;;;4.30;;
14133;SDS011;7147;59.364;18.018;2022-10-31T02:45:34;17.52;;;4.53;;
14133;SDS011;7147;59.364;18.018;2022-10-31T02:48:08;16.98;;;4.57;;
14133;SDS011;7147;59.364;18.018;2022-10-31T02:50:39;19.65;;;4.72;;
14133;SDS011;7147;59.364;18.018;2022-10-31T02:53:07;18.42;;;4.50;;
14133;SDS011;7147;59.364;18.018;2022-10-31T02:55:47;17.60;;;4.50;;
14133;SDS011;7147;59.364;18.018;2022-10-31T02:58:20;15.80;;;4.38;;
14133;SDS011;7147;59.364;18.018;2022-10-31T03:00:52;18.40;;;5.00;;
14133;SDS011;7147;59.364;18.018;2022-10-31T03:03:46;18.45;;;4.57;;
14133;SDS011;7147;59.364;18.018;2022-10-31T03:06:32;16.27;;;4.73;;
14133;SDS011;7147;59.364;18.018;2022-10-31T03:09:03;17.70;;;4.72;;
14133;SDS011;7147;59.364;18.018;2022-10-31T03:11:39;18.20;;;4.68;;
14133;SDS011;7147;59.364;18.018;2022-10-31T03:14:14;15.90;;;4.40;;
14133;SDS011;7147;59.364;18.018;2022-10-31T03:16:46;16.17;;;4.85;;
14133;SDS011;7147;59.364;18.018;2022-10-31T03:19:16;16.20;;;4.15;;
14133;SDS011;7147;59.364;18.018;2022-10-31T03:21:47;17.38;;;4.88;;
14133;SDS011;7147;59.364;18.018;2022-10-31T03:24:20;17.92;;;4.70;;
14133;SDS011;7147;59.364;18.018;2022-10-31T03:26:49;21.13;;;5.23;;
14133;SDS011;7147;59.364;18.018;2022-10-31T03:29:20;16.53;;;4.30;;
14133;SDS011;7147;59.364;18.018;2022-10-31T03:31:51;16.13;;;4.55;;
14133;SDS011;7147;59.364;18.018;2022-10-31T03:34:23;14.38;;;4.03;;
14133;SDS011;7147;59.364;18.018;2022-10-31T03:36:50;16.23;;;4.47;;
14133;SDS011;7147;59.364;18.018;2022-10-31T03:39:20;17.67;;;4.28;;
14133;SDS011;7147;59.364;18.018;2022-10-31T03:41:49;16.27;;;4.55;;
14133;SDS011;7147;59.364;18.018;2022-10-31T03:44:21;14.38;;;4.00;;
14133;SDS011;7147;59.364;18.018;2022-10-31T03:46:50;17.95;;;4.80;;
14133;SDS011;7147;59.364;18.018;2022-10-31T03:49:17;15.70;;;4.13;;
14133;SDS011;7147;59.364;18.018;2022-10-31T03:51:46;14.32;;;4.20;;
14133;SDS011;7147;59.364;18.018;2022-10-31T03:54:21;17.73;;;4.18;;
14133;SDS011;7147;59.364;18.018;2022-10-31T03:56:52;16.92;;;4.38;;
14133;SDS011;7147;59.364;18.018;2022-10-31T03:59:24;17.27;;;4.20;;
14133;SDS011;7147;59.364;18.018;2022-10-31T04:01:54;15.55;;;4.28;;
14133;SDS011;7147;59.364;18.018;2022-10-31T04:04:25;17.55;;;4.05;;
14133;SDS011;7147;59.364;18.018;2022-10-31T04:06:55;19.10;;;5.05;;
14133;SDS011;7147;59.364;18.018;2022-10-31T04:09:24;15.50;;;3.97;;
14133;SDS011;7147;59.364;18.018;2022-10-31T04:11:54;17.77;;;4.65;;
14133;SDS011;7147;59.364;18.018;2022-10-31T04:14:23;18.15;;;4.40;;
14133;SDS011;7147;59.364;18.018;2022-10-31T04:16:52;17.40;;;4.53;;
14133;SDS011;7147;59.364;18.018;2022-10-31T04:19:20;17.42;;;4.05;;
14133;SDS011;7147;59.364;18.018;2022-10-31T04:21:47;15.25;;;4.20;;
14133;SDS011;7147;59.364;18.018;2022-10-31T04:24:15;16.13;;;3.95;;
14133;SDS011;7147;59.364;18.018;2022-10-31T04:26:42;21.38;;;4.45;;
14133;SDS011;7147;59.364;18.018;2022-10-31T04:29:08;19.05;;;4.20;;
14133;SDS011;7147;59.364;18.018;2022-10-31T04:31:35;19.67;;;4.40;;
14133;SDS011;7147;59.364;18.018;2022-10-31T04:34:02;19.33;;;4.67;;
14133;SDS011;7147;59.364;18.018;2022-10-31T04:36:32;18.27;;;4.28;;
14133;SDS011;7147;59.364;18.018;2022-10-31T04:38:59;28.58;;;7.55;;
14133;SDS011;7147;59.364;18.018;2022-10-31T04:41:27;20.47;;;4.77;;
14133;SDS011;7147;59.364;18.018;2022-10-31T04:43:55;18.45;;;4.90;;
14133;SDS011;7147;59.364;18.018;2022-10-31T04:46:22;21.50;;;4.50;;
14133;SDS011;7147;59.364;18.018;2022-10-31T04:48:48;20.17;;;4.75;;
14133;SDS011;7147;59.364;18.018;2022-10-31T04:51:15;20.92;;;4.60;;
14133;SDS011;7147;59.364;18.018;2022-10-31T04:53:44;21.38;;;4.65;;
14133;SDS011;7147;59.364;18.018;2022-10-31T04:56:11;27.55;;;6.13;;
14133;SDS011;7147;59.364;18.018;2022-10-31T04:58:39;22.98;;;5.10;;
14133;SDS011;7147;59.364;18.018;2022-10-31T05:01:06;27.13;;;6.00;;
14133;SDS011;7147;59.364;18.018;2022-10-31T05:03:33;21.13;;;4.88;;
14133;SDS011;7147;59.364;18.018;2022-10-31T05:06:00;31.05;;;6.65;;
14133;SDS011;7147;59.364;18.018;2022-10-31T05:08:26;32.55;;;7.30;;
14133;SDS011;7147;59.364;18.018;2022-10-31T05:10:53;26.55;;;6.07;;
14133;SDS011;7147;59.364;18.018;2022-10-31T05:13:20;28.00;;;6.20;;
14133;SDS011;7147;59.364;18.018;2022-10-31T05:15:48;39.65;;;7.15;;
14133;SDS011;7147;59.364;18.018;2022-10-31T05:18:15;73.03;;;9.77;;
14133;SDS011;7147;59.364;18.018;2022-10-31T05:20:42;90.18;;;11.05;;
14133;SDS011;7147;59.364;18.018;2022-10-31T05:23:09;183.38;;;19.05;;
14133;SDS011;7147;59.364;18.018;2022-10-31T05:25:36;401.27;;;30.95;;
14133;SDS011;7147;59.364;18.018;2022-10-31T05:28:02;301.17;;;27.80;;
14133;SDS011;7147;59.364;18.018;2022-10-31T05:30:30;170.03;;;20.27;;
14133;SDS011;7147;59.364;18.018;2022-10-31T05:32:59;341.98;;;32.97;;
14133;SDS011;7147;59.364;18.018;2022-10-31T05:35:26;309.57;;;25.07;;
14133;SDS011;7147;59.364;18.018;2022-10-31T05:37:54;468.53;;;40.53;;
14133;SDS011;7147;59.364;18.018;2022-10-31T05:40:22;250.33;;;25.73;;
14133;SDS011;7147;59.364;18.018;2022-10-31T05:42:51;315.23;;;30.13;;
14133;SDS011;7147;59.364;18.018;2022-10-31T05:45:19;232.65;;;21.27;;
14133;SDS011;7147;59.364;18.018;2022-10-31T05:47:50;346.13;;;34.55;;
14133;SDS011;7147;59.364;18.018;2022-10-31T05:50:19;407.92;;;37.80;;
14133;SDS011;7147;59.364;18.018;2022-10-31T05:52:46;542.38;;;53.45;;
14133;SDS011;7147;59.364;18.018;2022-10-31T05:55:13;483.02;;;48.05;;
14133;SDS011;7147;59.364;18.018;2022-10-31T05:57:40;264.70;;;27.17;;
14133;SDS011;7147;59.364;18.018;2022-10-31T06:00:07;226.18;;;25.88;;
14133;SDS011;7147;59.364;18.018;2022-10-31T06:02:35;231.98;;;23.30;;
14133;SDS011;7147;59.364;18.018;2022-10-31T06:05:02;143.77;;;17.88;;
14133;SDS011;7147;59.364;18.018;2022-10-31T06:07:33;119.45;;;15.90;;
14133;SDS011;7147;59.364;18.018;2022-10-31T06:10:00;123.50;;;14.63;;
14133;SDS011;7147;59.364;18.018;2022-10-31T06:12:29;126.30;;;17.77;;
14133;SDS011;7147;59.364;18.018;2022-10-31T06:14:56;156.65;;;17.15;;
14133;SDS011;7147;59.364;18.018;2022-10-31T06:17:23;104.32;;;15.52;;
14133;SDS011;7147;59.364;18.018;2022-10-31T06:19:49;96.93;;;13.90;;
14133;SDS011;7147;59.364;18.018;2022-10-31T06:22:16;141.07;;;19.67;;
14133;SDS011;7147;59.364;18.018;2022-10-31T06:24:44;123.38;;;16.48;;
14133;SDS011;7147;59.364;18.018;2022-10-31T06:27:11;149.53;;;17.43;;
14133;SDS011;7147;59.364;18.018;2022-10-31T06:29:38;84.55;;;12.90;;
14133;SDS011;7147;59.364;18.018;2022-10-31T06:32:05;120.07;;;15.52;;
14133;SDS011;7147;59.364;18.018;2022-10-31T06:34:32;83.93;;;12.45;;
14133;SDS011;7147;59.364;18.018;2022-10-31T06:36:58;69.50;;;13.20;;
14133;SDS011;7147;59.364;18.018;2022-10-31T06:39:25;101.27;;;14.20;;
14133;SDS011;7147;59.364;18.018;2022-10-31T06:41:53;101.95;;;14.10;;
14133;SDS011;7147;59.364;18.018;2022-10-31T06:44:20;129.73;;;19.00;;
14133;SDS011;7147;59.364;18.018;2022-10-31T06:46:47;78.50;;;12.93;;
14133;SDS011;7147;59.364;18.018;2022-10-31T06:49:14;96.45;;;14.05;;
14133;SDS011;7147;59.364;18.018;2022-10-31T06:51:41;129.67;;;16.07;;
14133;SDS011;7147;59.364;18.018;2022-10-31T06:54:08;84.57;;;15.23;;
14133;SDS011;7147;59.364;18.018;2022-10-31T06:56:35;124.10;;;16.92;;
14133;SDS011;7147;59.364;18.018;2022-10-31T06:59:03;112.30;;;20.40;;
14133;SDS011;7147;59.364;18.018;2022-10-31T07:01:30;72.03;;;11.97;;
14133;SDS011;7147;59.364;18.018;2022-10-31T07:03:57;87.88;;;13.75;;
14133;SDS011;7147;59.364;18.018;2022-10-31T07:06:23;63.03;;;12.27;;
14133;SDS011;7147;59.364;18.018;2022-10-31T07:08:50;86.15;;;13.13;;
14133;SDS011;7147;59.364;18.018;2022-10-31T07:11:17;64.13;;;12.40;;
14133;SDS011;7147;59.364;18.018;2022-10-31T07:13:44;84.77;;;13.80;;
14133;SDS011;7147;59.364;18.018;2022-10-31T07:16:15;135.63;;;16.42;;
14133;SDS011;7147;59.364;18.018;2022-10-31T07:18:42;91.90;;;14.85;;
14133;SDS011;7147;59.364;18.018;2022-10-31T07:21:09;68.10;;;12.65;;
14133;SDS011;7147;59.364;18.018;2022-10-31T07:23:36;104.18;;;16.85;;
14133;SDS011;7147;59.364;18.018;2022-10-31T07:26:02;78.77;;;14.00;;
14133;SDS011;7147;59.364;18.018;2022-10-31T07:28:29;70.50;;;12.80;;
14133;SDS011;7147;59.364;18.018;2022-10-31T07:30:57;63.30;;;11.27;;
14133;SDS011;7147;59.364;18.018;2022-10-31T07:33:25;79.95;;;13.18;;
14133;SDS011;7147;59.364;18.018;2022-10-31T07:35:52;77.22;;;12.18;;
14133;SDS011;7147;59.364;18.018;2022-10-31T07:38:19;59.10;;;11.30;;
14133;SDS011;7147;59.364;18.018;2022-10-31T07:40:49;81.35;;;13.32;;
14133;SDS011;7147;59.364;18.018;2022-10-31T07:43:17;65.95;;;12.23;;
14133;SDS011;7147;59.364;18.018;2022-10-31T07:45:48;44.97;;;9.73;;
14133;SDS011;7147;59.364;18.018;2022-10-31T07:48:16;51.00;;;11.05;;
14133;SDS011;7147;59.364;18.018;2022-10-31T07:50:44;54.50;;;10.38;;
14133;SDS011;7147;59.364;18.018;2022-10-31T07:53:11;50.97;;;11.38;;
14133;SDS011;7147;59.364;18.018;2022-10-31T07:55:39;48.63;;;9.90;;
14133;SDS011;7147;59.364;18.018;2022-10-31T07:58:07;41.63;;;9.45;;
14133;SDS011;7147;59.364;18.018;2022-10-31T08:00:35;51.42;;;10.73;;
14133;SDS011;7147;59.364;18.018;2022-10-31T08:03:04;48.57;;;10.60;;
14133;SDS011;7147;59.364;18.018;2022-10-31T08:05:32;47.83;;;10.02;;
14133;SDS011;7147;59.364;18.018;2022-10-31T08:08:02;60.80;;;10.38;;
14133;SDS011;7147;59.364;18.018;2022-10-31T08:10:29;43.85;;;9.55;;
14133;SDS011;7147;59.364;18.018;2022-10-31T08:12:57;37.80;;;8.63;;
14133;SDS011;7147;59.364;18.018;2022-10-31T08:15:24;37.53;;;8.52;;
14133;SDS011;7147;59.364;18.018;2022-10-31T08:17:52;44.87;;;10.33;;
14133;SDS011;7147;59.364;18.018;2022-10-31T08:20:18;50.53;;;10.05;;
14133;SDS011;7147;59.364;18.018;2022-10-31T08:22:55;43.53;;;9.27;;
14133;SDS011;7147;59.364;18.018;2022-10-31T08:25:24;42.65;;;9.60;;
14133;SDS011;7147;59.364;18.018;2022-10-31T08:27:52;42.05;;;8.43;;
14133;SDS011;7147;59.364;18.018;2022-10-31T08:30:20;48.97;;;10.10;;
14133;SDS011;7147;59.364;18.018;2022-10-31T08:32:56;45.07;;;9.40;;
14133;SDS011;7147;59.364;18.018;2022-10-31T08:35:24;48.83;;;9.60;;
14133;SDS011;7147;59.364;18.018;2022-10-31T08:37:51;47.50;;;9.47;;
14133;SDS011;7147;59.364;18.018;2022-10-31T08:40:19;49.67;;;9.85;;
14133;SDS011;7147;59.364;18.018;2022-10-31T08:42:47;52.92;;;11.05;;
14133;SDS011;7147;59.364;18.018;2022-10-31T08:45:14;43.40;;;8.75;;
14133;SDS011;7147;59.364;18.018;2022-10-31T08:47:41;42.30;;;9.80;;
14133;SDS011;7147;59.364;18.018;2022-10-31T08:50:09;46.22;;;9.18;;
14133;SDS011;7147;59.364;18.018;2022-10-31T08:52:36;42.80;;;9.67;;
14133;SDS011;7147;59.364;18.018;2022-10-31T08:55:03;47.97;;;9.52;;
14133;SDS011;7147;59.364;18.018;2022-10-31T08:57:30;44.15;;;9.45;;
14133;SDS011;7147;59.364;18.018;2022-10-31T08:59:58;36.63;;;8.07;;
14133;SDS011;7147;59.364;18.018;2022-10-31T09:02:25;38.97;;;8.77;;
14133;SDS011;7147;59.364;18.018;2022-10-31T09:04:52;39.88;;;9.00;;
14133;SDS011;7147;59.364;18.018;2022-10-31T09:07:19;36.88;;;8.20;;
14133;SDS011;7147;59.364;18.018;2022-10-31T09:09:45;35.47;;;8.88;;
14133;SDS011;7147;59.364;18.018;2022-10-31T09:12:12;31.55;;;7.63;;
14133;SDS011;7147;59.364;18.018;2022-10-31T09:14:39;29.40;;;7.03;;
14133;SDS011;7147;59.364;18.018;2022-10-31T09:17:07;32.03;;;7.85;;
14133;SDS011;7147;59.364;18.018;2022-10-31T09:19:35;30.23;;;7.37;;
14133;SDS011;7147;59.364;18.018;2022-10-31T09:22:02;33.88;;;8.70;;
14133;SDS011;7147;59.364;18.018;2022-10-31T09:24:29;27.10;;;6.72;;
14133;SDS011;7147;59.364;18.018;2022-10-31T09:26:56;26.13;;;6.50;;
14133;SDS011;7147;59.364;18.018;2022-10-31T09:29:24;26.70;;;6.28;;
14133;SDS011;7147;59.364;18.018;2022-10-31T09:31:51;27.60;;;7.00;;
14133;SDS011;7147;59.364;18.018;2022-10-31T09:34:19;25.20;;;6.45;;
14133;SDS011;7147;59.364;18.018;2022-10-31T09:36:45;27.02;;;7.50;;
14133;SDS011;7147;59.364;18.018;2022-10-31T09:39:12;24.67;;;6.13;;
14133;SDS011;7147;59.364;18.018;2022-10-31T09:41:52;26.73;;;7.07;;
14133;SDS011;7147;59.364;18.018;2022-10-31T09:44:29;24.20;;;6.22;;
14133;SDS011;7147;59.364;18.018;2022-10-31T09:47:05;26.30;;;7.17;;
14133;SDS011;7147;59.364;18.018;2022-10-31T09:49:47;26.23;;;7.18;;
14133;SDS011;7147;59.364;18.018;2022-10-31T09:52:28;20.02;;;5.60;;
14133;SDS011;7147;59.364;18.018;2022-10-31T09:54:58;30.77;;;8.68;;
14133;SDS011;7147;59.364;18.018;2022-10-31T09:57:29;20.27;;;5.53;;
14133;SDS011;7147;59.364;18.018;2022-10-31T09:59:59;25.50;;;7.35;;
14133;SDS011;7147;59.364;18.018;2022-10-31T10:02:29;22.33;;;6.00;;
14133;SDS011;7147;59.364;18.018;2022-10-31T10:05:03;25.75;;;6.60;;
14133;SDS011;7147;59.364;18.018;2022-10-31T10:07:35;23.77;;;6.23;;
14133;SDS011;7147;59.364;18.018;2022-10-31T10:10:12;18.42;;;5.28;;
14133;SDS011;7147;59.364;18.018;2022-10-31T10:12:50;25.60;;;6.63;;
14133;SDS011;7147;59.364;18.018;2022-10-31T10:15:37;27.50;;;6.75;;
14133;SDS011;7147;59.364;18.018;2022-10-31T10:18:18;23.42;;;6.20;;
14133;SDS011;7147;59.364;18.018;2022-10-31T10:23:55;26.40;;;6.57;;
14133;SDS011;7147;59.364;18.018;2022-10-31T10:26:38;22.83;;;6.20;;
14133;SDS011;7147;59.364;18.018;2022-10-31T10:29:21;27.20;;;6.90;;
14133;SDS011;7147;59.364;18.018;2022-10-31T10:32:01;22.73;;;6.13;;
14133;SDS011;7147;59.364;18.018;2022-10-31T10:34:37;22.42;;;6.85;;
14133;SDS011;7147;59.364;18.018;2022-10-31T10:37:15;20.70;;;5.60;;
14133;SDS011;7147;59.364;18.018;2022-10-31T10:39:51;25.95;;;6.70;;
14133;SDS011;7147;59.364;18.018;2022-10-31T10:42:23;23.77;;;6.28;;
14133;SDS011;7147;59.364;18.018;2022-10-31T10:45:13;21.20;;;6.07;;
14133;SDS011;7147;59.364;18.018;2022-10-31T10:48:02;26.40;;;7.38;;
14133;SDS011;7147;59.364;18.018;2022-10-31T10:50:35;21.45;;;5.47;;
14133;SDS011;7147;59.364;18.018;2022-10-31T10:53:09;25.08;;;6.50;;
14133;SDS011;7147;59.364;18.018;2022-10-31T10:55:57;18.95;;;5.45;;
14133;SDS011;7147;59.364;18.018;2022-10-31T10:58:33;21.45;;;5.82;;
14133;SDS011;7147;59.364;18.018;2022-10-31T11:01:08;24.52;;;7.05;;
14133;SDS011;7147;59.364;18.018;2022-10-31T11:03:37;20.42;;;5.93;;
14133;SDS011;7147;59.364;18.018;2022-10-31T11:06:15;20.48;;;5.82;;
14133;SDS011;7147;59.364;18.018;2022-10-31T11:08:47;23.35;;;6.53;;
14133;SDS011;7147;59.364;18.018;2022-10-31T11:11:18;23.45;;;6.30;;
14133;SDS011;7147;59.364;18.018;2022-10-31T11:13:52;20.67;;;5.78;;
14133;SDS011;7147;59.364;18.018;2022-10-31T11:16:28;19.83;;;5.40;;
14133;SDS011;7147;59.364;18.018;2022-10-31T11:19:05;22.77;;;6.27;;
14133;SDS011;7147;59.364;18.018;2022-10-31T11:21:34;19.43;;;5.70;;
14133;SDS011;7147;59.364;18.018;2022-10-31T11:24:03;23.23;;;6.77;;
14133;SDS011;7147;59.364;18.018;2022-10-31T11:26:30;21.23;;;6.22;;
14133;SDS011;7147;59.364;18.018;2022-10-31T11:29:00;19.33;;;5.78;;
14133;SDS011;7147;59.364;18.018;2022-10-31T11:31:28;55.53;;;11.35;;
14133;SDS011;7147;59.364;18.018;2022-10-31T11:33:57;48.97;;;10.20;;
14133;SDS011;7147;59.364;18.018;2022-10-31T11:36:26;31.70;;;7.45;;
14133;SDS011;7147;59.364;18.018;2022-10-31T11:38:56;12.88;;;4.30;;
14133;SDS011;7147;59.364;18.018;2022-10-31T11:41:27;12.55;;;4.22;;
14133;SDS011;7147;59.364;18.018;2022-10-31T11:43:57;12.35;;;4.22;;
14133;SDS011;7147;59.364;18.018;2022-10-31T11:46:28;15.07;;;4.57;;
14133;SDS011;7147;59.364;18.018;2022-10-31T11:48:59;15.52;;;5.40;;
14133;SDS011;7147;59.364;18.018;2022-10-31T11:51:27;15.27;;;4.75;;
14133;SDS011;7147;59.364;18.018;2022-10-31T11:54:00;15.20;;;5.35;;
14133;SDS011;7147;59.364;18.018;2022-10-31T11:56:38;30.05;;;6.90;;
14133;SDS011;7147;59.364;18.018;2022-10-31T11:59:21;29.48;;;7.20;;
14133;SDS011;7147;59.364;18.018;2022-10-31T12:01:51;25.38;;;6.63;;
14133;SDS011;7147;59.364;18.018;2022-10-31T12:04:23;26.80;;;6.68;;
14133;SDS011;7147;59.364;18.018;2022-10-31T12:06:56;32.23;;;7.50;;
14133;SDS011;7147;59.364;18.018;2022-10-31T12:09:24;26.00;;;6.68;;
14133;SDS011;7147;59.364;18.018;2022-10-31T12:12:00;26.42;;;6.93;;
14133;SDS011;7147;59.364;18.018;2022-10-31T12:14:38;24.53;;;6.33;;
14133;SDS011;7147;59.364;18.018;2022-10-31T12:17:13;29.30;;;7.33;;
14133;SDS011;7147;59.364;18.018;2022-10-31T12:19:42;24.90;;;6.03;;
14133;SDS011;7147;59.364;18.018;2022-10-31T12:22:17;29.20;;;7.40;;
14133;SDS011;7147;59.364;18.018;2022-10-31T12:24:54;24.73;;;6.60;;
14133;SDS011;7147;59.364;18.018;2022-10-31T12:27:48;23.23;;;5.47;;
14133;SDS011;7147;59.364;18.018;2022-10-31T12:30:38;27.38;;;6.68;;
14133;SDS011;7147;59.364;18.018;2022-10-31T12:33:20;28.50;;;7.28;;
14133;SDS011;7147;59.364;18.018;2022-10-31T12:35:55;27.83;;;6.28;;
14133;SDS011;7147;59.364;18.018;2022-10-31T12:38:38;23.77;;;6.13;;
14133;SDS011;7147;59.364;18.018;2022-10-31T12:41:22;27.88;;;6.97;;
14133;SDS011;7147;59.364;18.018;2022-10-31T12:44:02;29.88;;;7.57;;
14133;SDS011;7147;59.364;18.018;2022-10-31T12:46:41;26.38;;;6.38;;
14133;SDS011;7147;59.364;18.018;2022-10-31T12:49:24;27.27;;;6.60;;
14133;SDS011;7147;59.364;18.018;2022-10-31T12:52:04;25.80;;;5.97;;
14133;SDS011;7147;59.364;18.018;2022-10-31T12:54:48;26.07;;;6.33;;
14133;SDS011;7147;59.364;18.018;2022-10-31T12:57:29;25.08;;;6.22;;
14133;SDS011;7147;59.364;18.018;2022-10-31T13:00:03;24.27;;;5.93;;
14133;SDS011;7147;59.364;18.018;2022-10-31T13:02:38;28.95;;;7.07;;
14133;SDS011;7147;59.364;18.018;2022-10-31T13:05:11;28.40;;;7.07;;
14133;SDS011;7147;59.364;18.018;2022-10-31T13:07:44;23.55;;;6.10;;
14133;SDS011;7147;59.364;18.018;2022-10-31T13:10:16;29.57;;;7.10;;
14133;SDS011;7147;59.364;18.018;2022-10-31T13:12:46;23.20;;;5.67;;
14133;SDS011;7147;59.364;18.018;2022-10-31T13:15:18;27.50;;;6.80;;
14133;SDS011;7147;59.364;18.018;2022-10-31T13:17:48;22.48;;;5.43;;
14133;SDS011;7147;59.364;18.018;2022-10-31T13:20:20;28.48;;;7.22;;
14133;SDS011;7147;59.364;18.018;2022-10-31T13:22:51;33.60;;;7.68;;
14133;SDS011;7147;59.364;18.018;2022-10-31T13:25:22;28.35;;;7.13;;
14133;SDS011;7147;59.364;18.018;2022-10-31T13:27:53;30.13;;;7.50;;
14133;SDS011;7147;59.364;18.018;2022-10-31T13:30:25;27.17;;;6.70;;
14133;SDS011;7147;59.364;18.018;2022-10-31T13:32:58;26.90;;;6.25;;
14133;SDS011;7147;59.364;18.018;2022-10-31T13:35:31;28.10;;;6.80;;
14133;SDS011;7147;59.364;18.018;2022-10-31T13:38:10;22.60;;;5.55;;
14133;SDS011;7147;59.364;18.018;2022-10-31T13:40:44;29.10;;;6.70;;
14133;SDS011;7147;59.364;18.018;2022-10-31T13:43:23;29.27;;;6.90;;
14133;SDS011;7147;59.364;18.018;2022-10-31T13:45:56;30.73;;;6.88;;
14133;SDS011;7147;59.364;18.018;2022-10-31T13:48:33;28.53;;;6.90;;
14133;SDS011;7147;59.364;18.018;2022-10-31T13:51:03;25.50;;;6.25;;
14133;SDS011;7147;59.364;18.018;2022-10-31T13:53:36;33.53;;;7.83;;
14133;SDS011;7147;59.364;18.018;2022-10-31T13:56:13;32.70;;;7.65;;
14133;SDS011;7147;59.364;18.018;2022-10-31T13:58:52;31.92;;;7.35;;
14133;SDS011;7147;59.364;18.018;2022-10-31T14:01:27;37.28;;;8.65;;
14133;SDS011;7147;59.364;18.018;2022-10-31T14:03:56;30.63;;;6.88;;
14133;SDS011;7147;59.364;18.018;2022-10-31T14:06:35;31.42;;;7.63;;
14133;SDS011;7147;59.364;18.018;2022-10-31T14:09:05;34.42;;;7.90;;
14133;SDS011;7147;59.364;18.018;2022-10-31T14:11:43;35.85;;;8.15;;
14133;SDS011;7147;59.364;18.018;2022-10-31T14:14:12;38.22;;;8.63;;
14133;SDS011;7147;59.364;18.018;2022-10-31T14:16:42;34.30;;;7.87;;
14133;SDS011;7147;59.364;18.018;2022-10-31T14:19:13;33.30;;;7.32;;
14133;SDS011;7147;59.364;18.018;2022-10-31T14:21:43;34.30;;;7.95;;
14133;SDS011;7147;59.364;18.018;2022-10-31T14:24:14;43.25;;;10.02;;
14133;SDS011;7147;59.364;18.018;2022-10-31T14:26:51;31.20;;;7.13;;
14133;SDS011;7147;59.364;18.018;2022-10-31T14:29:20;35.05;;;8.18;;
14133;SDS011;7147;59.364;18.018;2022-10-31T14:31:55;29.88;;;6.70;;
14133;SDS011;7147;59.364;18.018;2022-10-31T14:34:26;34.03;;;7.97;;
14133;SDS011;7147;59.364;18.018;2022-10-31T14:37:10;34.63;;;7.85;;
14133;SDS011;7147;59.364;18.018;2022-10-31T14:39:51;35.58;;;8.05;;
14133;SDS011;7147;59.364;18.018;2022-10-31T14:42:31;34.80;;;7.68;;
14133;SDS011;7147;59.364;18.018;2022-10-31T14:47:59;31.58;;;7.15;;
14133;SDS011;7147;59.364;18.018;2022-10-31T14:50:41;39.63;;;8.85;;
14133;SDS011;7147;59.364;18.018;2022-10-31T14:53:14;31.73;;;7.27;;
14133;SDS011;7147;59.364;18.018;2022-10-31T14:55:47;33.33;;;7.75;;
14133;SDS011;7147;59.364;18.018;2022-10-31T14:58:17;38.55;;;8.88;;
14133;SDS011;7147;59.364;18.018;2022-10-31T15:00:47;37.20;;;8.60;;
14133;SDS011;7147;59.364;18.018;2022-10-31T15:03:17;30.05;;;6.68;;